Time;durP1;ratioP1;P1;durP2;ratioP2;P2;SDS_P1;SDS_P2;PMS_P1;PMS_P2;Temp;Humidity;BMP_temperature;BMP_pressure;BME280_temperature;BME280_humidity;BME280_pressure;Samples;Min_cycle;Max_cycle;Signal;HPM_P1;HPM_P2
2023/05/16 00:00:52;;;;;;;4.20;2.90;;;;;;;11.38;100.00;101183.63;6225510;28;20046;-72
2023/05/16 00:03:54;;;;;;;5.75;2.38;;;;;;;11.40;100.00;101189.66;6225553;28;20162;-71
2023/05/16 00:06:56;;;;;;;5.82;2.05;;;;;;;11.37;100.00;101185.41;6225337;28;20053;-71
2023/05/16 00:09:57;;;;;;;2.70;2.20;;;;;;;11.37;100.00;101181.91;6225405;28;20046;-71
2023/05/16 00:13:00;;;;;;;3.85;1.80;;;;;;;11.26;100.00;101184.22;6225231;28;20057;-72
2023/05/16 00:16:03;;;;;;;2.40;1.63;;;;;;;11.31;100.00;101187.47;6225477;28;20045;-72
2023/05/16 00:19:06;;;;;;;4.68;1.88;;;;;;;11.34;100.00;101192.59;6224870;28;20443;-71
2023/05/16 00:22:07;;;;;;;2.53;1.90;;;;;;;11.36;100.00;101193.38;6225500;28;20058;-72
2023/05/16 00:25:09;;;;;;;3.10;1.80;;;;;;;11.31;100.00;101193.59;6224943;28;20056;-71
2023/05/16 00:28:10;;;;;;;4.30;2.03;;;;;;;11.29;100.00;101195.44;6224948;28;20045;-71
2023/05/16 00:31:12;;;;;;;2.25;1.75;;;;;;;11.25;100.00;101193.03;6216998;28;20363;-71
2023/05/16 00:34:15;;;;;;;4.35;1.95;;;;;;;11.28;100.00;101198.16;6226228;28;20469;-72
2023/05/16 00:37:16;;;;;;;1.70;1.42;;;;;;;11.28;100.00;101206.91;6229564;28;20124;-71
2023/05/16 00:40:18;;;;;;;4.20;1.70;;;;;;;11.21;100.00;101205.47;6229301;28;20046;-71
2023/05/16 00:43:19;;;;;;;3.25;1.65;;;;;;;11.21;100.00;101197.59;6229668;28;20054;-72
2023/05/16 00:46:20;;;;;;;4.07;1.75;;;;;;;11.14;100.00;101196.19;6229229;28;20054;-71
2023/05/16 00:49:23;;;;;;;3.22;1.67;;;;;;;11.12;100.00;101183.09;6229104;28;20072;-71
2023/05/16 00:52:25;;;;;;;1.83;1.30;;;;;;;11.15;100.00;101195.28;6229255;28;20050;-71
2023/05/16 00:55:27;;;;;;;3.03;1.45;;;;;;;11.07;100.00;101184.25;6228997;28;20050;-71
2023/05/16 00:58:31;;;;;;;2.30;1.23;;;;;;;11.04;100.00;101184.44;6228775;28;20042;-71
2023/05/16 01:01:33;;;;;;;2.85;0.98;;;;;;;11.03;100.00;101182.69;6229291;28;20132;-71
2023/05/16 01:04:36;;;;;;;5.30;1.88;;;;;;;11.00;100.00;101188.13;6229074;28;20042;-71
2023/05/16 01:07:37;;;;;;;2.35;1.00;;;;;;;11.00;100.00;101194.25;6229107;28;20056;-71
2023/05/16 01:10:48;;;;;;;3.13;1.00;;;;;;;11.04;100.00;101190.53;6228698;28;20053;-72
2023/05/16 01:13:59;;;;;;;1.70;0.95;;;;;;;10.98;100.00;101187.34;6228794;28;20046;-71
2023/05/16 01:17:07;;;;;;;2.00;0.93;;;;;;;10.90;100.00;101187.69;6228667;28;20053;-71
2023/05/16 01:20:19;;;;;;;0.77;0.77;;;;;;;10.97;100.00;101197.00;6228573;28;20046;-71
2023/05/16 01:23:34;;;;;;;2.78;0.85;;;;;;;10.90;100.00;101188.56;6228668;28;20118;-71
2023/05/16 01:26:37;;;;;;;4.07;1.52;;;;;;;10.89;100.00;101189.47;6228270;28;20512;-71
2023/05/16 01:29:39;;;;;;;6.30;0.80;;;;;;;10.93;100.00;101191.03;6228045;28;20061;-71
2023/05/16 01:32:40;;;;;;;3.22;1.42;;;;;;;10.84;100.00;101191.47;6225507;28;20409;-71
2023/05/16 01:35:51;;;;;;;2.58;0.90;;;;;;;10.90;100.00;101195.56;6228250;28;20060;-71
2023/05/16 01:39:02;;;;;;;1.58;0.60;;;;;;;10.86;100.00;101194.91;6228016;28;20093;-71
2023/05/16 01:42:08;;;;;;;2.22;1.00;;;;;;;10.79;100.00;101209.25;6228106;28;20053;-71
2023/05/16 01:45:14;;;;;;;1.70;0.98;;;;;;;10.72;100.00;101213.09;6227888;28;20053;-71
2023/05/16 01:48:21;;;;;;;3.58;1.50;;;;;;;10.69;100.00;101213.22;6227617;28;20050;-71
2023/05/16 01:51:27;;;;;;;4.80;0.90;;;;;;;10.61;100.00;101210.94;6227931;28;20350;-72
2023/05/16 01:54:31;;;;;;;4.43;0.82;;;;;;;10.56;100.00;101212.94;6227637;28;20049;-71
2023/05/16 01:57:36;;;;;;;5.53;1.10;;;;;;;10.56;100.00;101218.19;6227778;28;20050;-71
2023/05/16 02:00:37;;;;;;;3.75;1.00;;;;;;;10.66;100.00;101216.00;6227475;28;20038;-71
2023/05/16 02:03:39;;;;;;;1.88;0.90;;;;;;;10.62;100.00;101217.06;6227620;28;20053;-71
2023/05/16 02:06:40;;;;;;;3.42;0.68;;;;;;;10.62;100.00;101222.31;6227659;28;20046;-72
2023/05/16 02:09:42;;;;;;;2.95;0.70;;;;;;;10.53;100.00;101217.47;6227235;28;20045;-71
2023/05/16 02:12:44;;;;;;;9.88;1.02;;;;;;;10.59;100.00;101227.72;6217161;28;20046;-71
2023/05/16 02:15:46;;;;;;;6.05;1.17;;;;;;;10.46;100.00;101218.69;6227533;28;20049;-71
2023/05/16 02:18:47;;;;;;;3.35;1.08;;;;;;;10.58;100.00;101229.50;6226917;28;20045;-71
2023/05/16 02:21:50;;;;;;;2.33;0.85;;;;;;;10.59;100.00;101230.34;6225182;28;20052;-71
2023/05/16 02:24:51;;;;;;;3.60;0.98;;;;;;;10.50;100.00;101228.16;6226857;28;20076;-71
2023/05/16 02:27:54;;;;;;;5.85;1.35;;;;;;;10.38;100.00;101233.00;6226934;28;20045;-71
2023/05/16 02:30:57;;;;;;;3.42;1.10;;;;;;;10.49;100.00;101235.19;6227056;28;20057;-71
2023/05/16 02:33:58;;;;;;;5.25;0.90;;;;;;;10.40;100.00;101236.44;6227219;28;20129;-71
2023/05/16 02:36:59;;;;;;;6.38;1.33;;;;;;;10.32;100.00;101235.91;6226994;28;20054;-71
2023/05/16 02:40:01;;;;;;;8.65;1.83;;;;;;;10.35;100.00;101240.16;6226424;28;20049;-71
2023/05/16 02:43:04;;;;;;;4.93;1.02;;;;;;;10.29;100.00;101230.78;6226895;28;20192;-71
2023/05/16 02:46:20;;;;;;;9.48;1.52;;;;;;;10.35;100.00;101237.53;6226702;28;20054;-72
2023/05/16 02:49:21;;;;;;;5.45;0.90;;;;;;;10.41;100.00;101238.13;6226604;28;20046;-71
2023/05/16 02:52:23;;;;;;;4.68;0.93;;;;;;;10.44;100.00;101239.75;6226597;28;20050;-71
2023/05/16 02:55:24;;;;;;;10.23;0.95;;;;;;;10.41;100.00;101242.53;6226438;28;20050;-71
2023/05/16 02:58:27;;;;;;;3.60;0.90;;;;;;;10.43;100.00;101245.09;6225191;28;20501;-71
2023/05/16 03:01:28;;;;;;;6.75;0.88;;;;;;;10.41;100.00;101251.28;6226367;28;20050;-71
2023/05/16 03:04:29;;;;;;;4.25;1.17;;;;;;;10.38;100.00;101248.78;6226480;28;20053;-71
2023/05/16 03:07:31;;;;;;;2.60;0.80;;;;;;;10.44;100.00;101254.66;6226185;28;20434;-72
2023/05/16 03:10:32;;;;;;;8.30;1.08;;;;;;;10.37;100.00;101252.34;6225089;28;20358;-71
2023/05/16 03:13:35;;;;;;;4.05;0.70;;;;;;;10.27;100.00;101260.69;6204528;28;20511;-71
2023/05/16 03:16:37;;;;;;;3.50;1.08;;;;;;;10.27;100.00;101258.91;6202899;28;20573;-72
2023/05/16 03:19:38;;;;;;;3.85;1.08;;;;;;;10.14;100.00;101265.59;6204043;28;20042;-71
2023/05/16 03:22:40;;;;;;;2.92;0.98;;;;;;;10.18;100.00;101267.16;6203596;28;20038;-72
2023/05/16 03:25:42;;;;;;;2.90;1.00;;;;;;;10.22;100.00;101266.13;6204489;28;20506;-72
2023/05/16 03:28:45;;;;;;;7.05;0.95;;;;;;;10.27;100.00;101265.94;6203982;28;20099;-71
2023/05/16 03:31:46;;;;;;;5.82;1.20;;;;;;;10.29;100.00;101270.19;6201654;28;20079;-71
2023/05/16 03:34:47;;;;;;;11.68;2.05;;;;;;;10.33;100.00;101276.19;6204101;28;20046;-71
2023/05/16 03:37:49;;;;;;;6.88;1.25;;;;;;;10.30;100.00;101274.53;6202702;28;20041;-71
2023/05/16 03:40:50;;;;;;;6.50;1.45;;;;;;;10.31;100.00;101270.13;6202814;28;20047;-71
2023/05/16 03:43:53;;;;;;;8.55;1.17;;;;;;;10.27;100.00;101289.59;6204297;28;20608;-72
2023/05/16 03:46:54;;;;;;;8.13;2.20;;;;;;;10.18;100.00;101288.19;6202663;28;20597;-71
2023/05/16 03:49:56;;;;;;;7.80;1.10;;;;;;;10.17;99.36;101299.56;6204196;28;20177;-71
2023/05/16 03:52:58;;;;;;;8.55;1.45;;;;;;;10.07;100.00;101306.16;6203891;28;20574;-70
2023/05/16 03:55:59;;;;;;;2.00;1.52;;;;;;;10.12;98.99;101304.19;6205478;28;20053;-72
2023/05/16 03:59:02;;;;;;;7.05;1.17;;;;;;;10.00;98.38;101310.81;6198404;28;20038;-71
2023/05/16 04:02:04;;;;;;;12.05;2.95;;;;;;;9.91;97.39;101311.19;6207431;28;20072;-71
2023/05/16 04:05:07;;;;;;;3.20;0.98;;;;;;;9.90;97.41;101307.72;6204730;28;20046;-72
2023/05/16 04:08:09;;;;;;;6.10;0.95;;;;;;;9.88;96.75;101313.94;6204846;28;20129;-71
2023/05/16 04:11:10;;;;;;;9.75;0.95;;;;;;;9.81;97.63;101312.47;6213794;28;20053;-71
2023/05/16 04:14:14;;;;;;;12.55;2.88;;;;;;;9.73;96.57;101318.06;6230136;28;20053;-71
2023/05/16 04:17:15;;;;;;;11.10;1.63;;;;;;;9.81;97.61;101322.97;6229867;28;20053;-71
2023/05/16 04:20:17;;;;;;;5.68;1.00;;;;;;;9.68;96.94;101324.41;6229990;28;20053;-74
2023/05/16 04:23:18;;;;;;;7.72;1.20;;;;;;;9.58;98.27;101337.03;6230140;28;20050;-74
2023/05/16 04:26:20;;;;;;;5.35;0.80;;;;;;;9.57;96.38;101330.94;6229691;28;20050;-74
2023/05/16 04:29:23;;;;;;;11.63;1.45;;;;;;;9.53;95.79;101331.97;6229723;28;20518;-74
2023/05/16 04:32:24;;;;;;;4.63;1.05;;;;;;;9.45;96.16;101338.41;6229678;28;20343;-71
2023/05/16 04:35:27;;;;;;;6.35;1.20;;;;;;;9.47;95.96;101341.84;6229861;28;20085;-73
2023/05/16 04:38:30;;;;;;;9.55;1.55;;;;;;;9.43;97.42;101340.25;6229209;28;20140;-73
2023/05/16 04:41:31;;;;;;;4.63;0.77;;;;;;;9.51;97.28;101346.91;6229729;28;20085;-74
2023/05/16 04:44:34;;;;;;;6.60;0.95;;;;;;;9.53;97.92;101354.72;6229637;28;20473;-73
2023/05/16 04:47:35;;;;;;;13.57;2.97;;;;;;;9.49;96.60;101353.13;6228986;28;20050;-73
2023/05/16 04:50:37;;;;;;;2.80;0.88;;;;;;;9.55;96.19;101358.16;6229338;28;20049;-73
2023/05/16 04:53:38;;;;;;;15.50;1.27;;;;;;;9.62;96.14;101363.09;6229329;28;20050;-71
2023/05/16 04:56:39;;;;;;;8.63;0.95;;;;;;;9.53;94.88;101366.06;6229277;28;20049;-71
2023/05/16 04:59:43;;;;;;;9.70;1.25;;;;;;;9.47;95.61;101370.72;6228784;28;20529;-73
2023/05/16 05:02:44;;;;;;;7.22;1.35;;;;;;;9.45;95.27;101377.78;6229297;28;20430;-74
2023/05/16 05:05:46;;;;;;;2.72;0.63;;;;;;;9.44;94.63;101386.56;6229110;28;20145;-73
2023/05/16 05:08:48;;;;;;;12.75;2.17;;;;;;;9.49;95.44;101384.63;6228872;28;20471;-73
2023/05/16 05:11:50;;;;;;;8.57;1.08;;;;;;;9.45;94.51;101389.16;6226754;28;20068;-74
2023/05/16 05:14:52;;;;;;;6.00;2.00;;;;;;;9.36;95.64;101394.75;6228788;28;20145;-74
2023/05/16 05:17:54;;;;;;;10.48;1.50;;;;;;;9.39;96.36;101384.13;6228387;28;20413;-74
2023/05/16 05:20:55;;;;;;;4.78;0.75;;;;;;;9.43;95.72;101400.59;6227197;28;20054;-73
2023/05/16 05:23:56;;;;;;;8.48;1.05;;;;;;;9.39;94.37;101391.97;6228607;28;20054;-74
2023/05/16 05:26:58;;;;;;;1.90;0.63;;;;;;;9.38;95.30;101395.53;6228409;28;20454;-73
2023/05/16 05:30:00;;;;;;;2.95;0.98;;;;;;;9.40;94.67;101405.06;6228356;28;20046;-73
2023/05/16 05:33:02;;;;;;;4.82;0.95;;;;;;;9.36;95.81;101403.47;6228248;28;20370;-73
2023/05/16 05:36:04;;;;;;;9.75;1.67;;;;;;;9.36;94.37;101415.72;6228402;28;20427;-73
2023/05/16 05:39:05;;;;;;;4.10;0.80;;;;;;;9.36;92.82;101416.59;6227702;28;20046;-74
2023/05/16 05:42:07;;;;;;;6.03;1.20;;;;;;;9.32;93.87;101419.38;6228347;28;20054;-74
2023/05/16 05:45:11;;;;;;;9.45;1.85;;;;;;;9.28;95.42;101417.78;6228111;28;20050;-73
2023/05/16 05:48:12;;;;;;;6.72;0.93;;;;;;;9.38;93.89;101432.25;6223179;28;20054;-75
2023/05/16 05:51:14;;;;;;;3.03;0.60;;;;;;;9.32;94.10;101433.34;6227942;28;20113;-73
2023/05/16 05:54:15;;;;;;;4.72;0.90;;;;;;;9.30;93.73;101429.06;6227516;28;20457;-73
2023/05/16 05:57:17;;;;;;;4.78;0.85;;;;;;;9.35;93.69;101433.22;6227233;28;20050;-74
2023/05/16 06:00:20;;;;;;;7.80;1.10;;;;;;;9.35;93.04;101433.22;6226665;28;20049;-73
2023/05/16 06:03:22;;;;;;;7.28;0.93;;;;;;;9.39;93.57;101423.47;6227543;28;20053;-73
2023/05/16 06:06:23;;;;;;;4.03;0.85;;;;;;;9.47;91.59;101438.94;6227215;28;20479;-74
2023/05/16 06:09:24;;;;;;;1.65;1.17;;;;;;;9.41;92.33;101437.41;6227076;28;20037;-74
2023/05/16 06:12:26;;;;;;;4.65;0.45;;;;;;;9.47;93.23;101446.78;6226821;28;20042;-73
2023/05/16 06:15:28;;;;;;;3.50;0.88;;;;;;;9.52;92.51;101444.84;6226980;28;20049;-74
2023/05/16 06:18:30;;;;;;;6.18;0.90;;;;;;;9.52;93.13;101442.22;6227017;28;20050;-70
2023/05/16 06:21:32;;;;;;;9.82;1.67;;;;;;;9.53;91.22;101451.81;6226764;28;20046;-73
2023/05/16 06:24:33;;;;;;;15.05;1.60;;;;;;;9.64;90.73;101453.13;6226735;28;20049;-74
2023/05/16 06:27:35;;;;;;;4.07;1.05;;;;;;;9.58;88.92;101468.22;6226432;28;20132;-73
2023/05/16 06:30:37;;;;;;;3.40;0.57;;;;;;;9.58;89.99;101471.72;6226761;28;20458;-73
2023/05/16 06:33:39;;;;;;;11.73;1.25;;;;;;;9.64;88.83;101478.50;6225472;28;20457;-73
2023/05/16 06:36:40;;;;;;;3.58;0.45;;;;;;;9.69;87.95;101467.84;6226444;28;20461;-75
2023/05/16 06:39:42;;;;;;;6.90;1.05;;;;;;;9.66;85.81;101464.41;6225940;28;20045;-75
2023/05/16 06:42:43;;;;;;;5.32;1.15;;;;;;;9.71;86.98;101466.00;6220052;28;20061;-74
2023/05/16 06:45:46;;;;;;;3.45;0.93;;;;;;;9.74;87.79;101477.25;6224732;28;20054;-74
2023/05/16 06:48:47;;;;;;;3.20;0.68;;;;;;;9.80;85.19;101477.00;6220847;28;20049;-74
2023/05/16 06:51:49;;;;;;;7.07;0.95;;;;;;;9.89;87.66;101486.28;6211293;28;20335;-75
2023/05/16 06:54:50;;;;;;;10.52;0.80;;;;;;;9.95;86.69;101478.19;6219697;28;20689;-71
2023/05/16 06:57:52;;;;;;;5.25;1.08;;;;;;;10.02;86.07;101484.91;6223060;28;20053;-72
2023/05/16 07:00:55;;;;;;;2.85;0.80;;;;;;;10.07;84.36;101482.09;6225950;28;20046;-75
2023/05/16 07:03:56;;;;;;;11.68;1.38;;;;;;;10.06;84.25;101488.28;6226428;28;20064;-72
2023/05/16 07:06:57;;;;;;;1.67;0.57;;;;;;;10.08;84.20;101489.94;6226024;28;20366;-72
2023/05/16 07:09:59;;;;;;;7.38;1.20;;;;;;;10.09;83.62;101498.66;6226152;28;20132;-72
2023/05/16 07:13:01;;;;;;;9.23;1.13;;;;;;;10.23;82.44;101493.72;6220123;28;20471;-75
2023/05/16 07:16:06;;;;;;;2.53;0.80;;;;;;;10.18;83.18;101502.69;6221370;28;20045;-74
2023/05/16 07:19:08;;;;;;;5.75;1.10;;;;;;;10.20;82.88;101504.34;6218717;28;20076;-72
2023/05/16 07:22:09;;;;;;;5.50;1.10;;;;;;;10.32;84.48;101505.66;6221718;28;20132;-73
2023/05/16 07:25:13;;;;;;;6.07;0.82;;;;;;;10.38;80.80;101502.78;6218930;28;20077;-72
2023/05/16 07:28:14;;;;;;;5.75;1.52;;;;;;;10.38;79.70;101508.88;6222492;28;20136;-71
2023/05/16 07:31:17;;;;;;;12.23;1.10;;;;;;;10.34;82.18;101502.03;6224676;28;20057;-72
2023/05/16 07:34:18;;;;;;;7.10;1.30;;;;;;;10.42;80.13;101504.38;6225479;28;20045;-74
2023/05/16 07:37:20;;;;;;;7.38;1.63;;;;;;;10.32;78.47;101517.03;6225637;28;20129;-71
2023/05/16 07:40:24;;;;;;;1.88;0.40;;;;;;;10.22;77.43;101513.03;6225229;28;20049;-71
2023/05/16 07:43:26;;;;;;;4.05;0.88;;;;;;;10.17;78.42;101512.31;6225802;28;20165;-72
2023/05/16 07:46:28;;;;;;;3.28;0.60;;;;;;;10.29;75.47;101500.53;6225648;28;20435;-74
2023/05/16 07:49:30;;;;;;;17.25;1.33;;;;;;;10.42;75.78;101514.88;6230616;28;20354;-75
2023/05/16 07:52:31;;;;;;;7.20;1.23;;;;;;;10.52;74.93;101508.31;6219641;28;20084;-73
2023/05/16 07:55:32;;;;;;;4.82;1.70;;;;;;;10.64;73.21;101517.50;6221449;28;20057;-74
2023/05/16 07:58:34;;;;;;;4.20;0.90;;;;;;;10.63;75.10;101508.75;6233090;28;20049;-73
2023/05/16 08:01:37;;;;;;;3.53;0.57;;;;;;;10.65;73.67;101506.91;6224607;28;20358;-73
2023/05/16 08:04:38;;;;;;;3.92;1.10;;;;;;;10.47;73.78;101509.44;6233466;28;20133;-71
2023/05/16 08:07:39;;;;;;;2.17;0.63;;;;;;;10.54;73.22;101505.66;6229559;28;20054;-71
2023/05/16 08:10:41;;;;;;;3.60;0.55;;;;;;;10.66;74.25;101513.00;6224803;28;20057;-70
2023/05/16 08:13:42;;;;;;;3.28;0.98;;;;;;;10.89;73.49;101514.69;6220636;28;20054;-71
2023/05/16 08:16:45;;;;;;;3.55;1.08;;;;;;;11.07;69.19;101516.53;6226688;28;20057;-71
2023/05/16 08:19:46;;;;;;;4.03;0.65;;;;;;;10.91;68.53;101503.19;6228589;28;20042;-72
2023/05/16 08:22:48;;;;;;;3.80;0.50;;;;;;;10.82;70.52;101513.25;6226546;28;20050;-73
2023/05/16 08:25:49;;;;;;;8.18;1.25;;;;;;;10.81;71.18;101511.50;6232920;28;20050;-71
2023/05/16 08:28:50;;;;;;;5.05;0.65;;;;;;;10.86;68.46;101515.69;6232274;28;20050;-72
2023/05/16 08:31:53;;;;;;;2.92;0.68;;;;;;;11.03;66.63;101511.47;6219696;28;20077;-71
2023/05/16 08:34:55;;;;;;;7.10;0.60;;;;;;;11.04;66.55;101511.41;6220037;28;20053;-71
2023/05/16 08:37:56;;;;;;;0.40;0.30;;;;;;;11.15;65.80;101506.53;6222760;28;20133;-71
2023/05/16 08:40:57;;;;;;;4.32;0.82;;;;;;;11.39;65.98;101509.84;6221776;28;20207;-71
2023/05/16 08:43:59;;;;;;;5.53;0.70;;;;;;;11.39;64.30;101509.00;6227085;28;20621;-72
2023/05/16 08:47:09;;;;;;;2.53;0.52;;;;;;;11.27;64.45;101517.47;6232904;28;20358;-71
2023/05/16 08:50:12;;;;;;;2.78;0.82;;;;;;;11.22;66.36;101515.03;6232957;28;20049;-71
2023/05/16 08:53:17;;;;;;;4.10;1.88;;;;;;;11.34;65.13;101511.00;6232118;28;20069;-71
2023/05/16 08:56:21;;;;;;;3.38;0.77;;;;;;;11.39;64.16;101504.59;6230332;28;20060;-70
2023/05/16 08:59:22;;;;;;;3.22;0.95;;;;;;;11.39;66.78;101507.22;6228889;28;20473;-70
2023/05/16 09:02:25;;;;;;;2.45;0.65;;;;;;;11.52;65.32;101509.31;6229163;28;20050;-70
2023/05/16 09:05:27;;;;;;;3.88;1.05;;;;;;;11.58;65.57;101504.66;6222065;28;20046;-71
2023/05/16 09:08:29;;;;;;;2.45;0.90;;;;;;;11.57;64.88;101502.91;6224008;28;20052;-71
2023/05/16 09:11:30;;;;;;;12.35;1.38;;;;;;;11.56;65.71;101503.00;6225719;28;20042;-71
2023/05/16 09:14:31;;;;;;;2.33;0.50;;;;;;;11.67;63.89;101496.31;6228144;28;20358;-71
2023/05/16 09:17:37;;;;;;;5.32;0.80;;;;;;;11.91;63.46;101491.72;6228507;28;20354;-72
2023/05/16 09:20:45;;;;;;;4.93;0.70;;;;;;;12.04;62.45;101492.00;6228200;28;20158;-71
2023/05/16 09:23:48;;;;;;;3.80;0.80;;;;;;;12.06;61.92;101502.47;6228645;28;20125;-70
2023/05/16 09:26:50;;;;;;;2.95;0.52;;;;;;;12.05;63.36;101498.97;6227957;28;20060;-71
2023/05/16 09:29:51;;;;;;;5.95;0.52;;;;;;;12.02;63.77;101507.00;6227343;28;20057;-71
2023/05/16 09:32:54;;;;;;;9.32;0.85;;;;;;;11.80;63.67;101499.22;6221182;28;20054;-71
2023/05/16 09:35:57;;;;;;;4.38;0.73;;;;;;;11.77;58.63;101493.28;6228245;28;20144;-71
2023/05/16 09:38:58;;;;;;;1.77;0.45;;;;;;;11.86;56.41;101504.25;6227043;28;20131;-71
2023/05/16 09:42:00;;;;;;;1.23;0.63;;;;;;;12.00;57.47;101486.94;6228068;28;20073;-72
2023/05/16 09:45:02;;;;;;;6.32;1.08;;;;;;;12.08;57.22;101479.50;6227556;28;20328;-71
2023/05/16 09:48:09;;;;;;;3.10;0.68;;;;;;;12.05;55.99;101490.22;6227985;28;20558;-71
2023/05/16 09:51:12;;;;;;;3.08;0.77;;;;;;;12.08;54.73;101487.41;6227772;28;20042;-72
2023/05/16 09:54:14;;;;;;;0.93;0.32;;;;;;;12.20;57.32;101489.47;6226487;28;20052;-71
2023/05/16 09:57:18;;;;;;;7.75;0.60;;;;;;;12.23;54.78;101494.59;6225594;28;20184;-71
2023/05/16 10:00:19;;;;;;;4.85;0.73;;;;;;;12.36;52.89;101503.63;6218367;28;20050;-73
2023/05/16 10:03:23;;;;;;;1.90;0.50;;;;;;;12.53;54.57;101488.75;6225971;28;20076;-72
2023/05/16 10:06:25;;;;;;;10.88;1.30;;;;;;;12.66;56.89;101498.59;6225260;28;20060;-72
2023/05/16 10:09:27;;;;;;;3.83;0.95;;;;;;;12.67;54.30;101494.19;6227248;28;20545;-71
2023/05/16 10:12:31;;;;;;;2.45;0.60;;;;;;;12.67;53.79;101500.34;6224925;28;20046;-71
2023/05/16 10:15:32;;;;;;;3.42;0.65;;;;;;;12.60;54.37;101477.84;6222988;28;20172;-70
2023/05/16 10:18:37;;;;;;;3.00;0.52;;;;;;;12.59;53.61;101485.81;6219774;28;20050;-73
2023/05/16 10:21:42;;;;;;;7.88;0.55;;;;;;;12.76;53.48;101475.25;6226676;28;20433;-71
2023/05/16 10:24:48;;;;;;;1.85;0.47;;;;;;;12.97;53.18;101483.88;6227146;28;20050;-71
2023/05/16 10:27:51;;;;;;;5.40;1.33;;;;;;;13.01;55.30;101477.50;6226114;28;20057;-71
2023/05/16 10:30:54;;;;;;;7.07;1.10;;;;;;;12.92;55.67;101493.81;6224549;28;20415;-71
2023/05/16 10:33:57;;;;;;;4.20;0.77;;;;;;;12.80;53.64;101494.44;6227138;28;20050;-71
2023/05/16 10:36:59;;;;;;;4.60;0.55;;;;;;;12.74;54.58;101484.19;6224881;28;20061;-71
2023/05/16 10:40:04;;;;;;;2.75;0.63;;;;;;;12.75;53.94;101478.00;6226849;28;20054;-72
2023/05/16 10:43:07;;;;;;;3.92;0.90;;;;;;;13.06;52.35;101493.94;6226438;28;20317;-72
2023/05/16 10:46:10;;;;;;;8.50;0.98;;;;;;;13.16;51.54;101479.34;6226575;28;20457;-72
2023/05/16 10:49:24;;;;;;;2.58;1.17;;;;;;;13.16;50.00;101481.13;6226503;28;20060;-73
2023/05/16 10:52:33;;;;;;;2.17;0.50;;;;;;;13.25;51.43;101490.38;6226735;28;20430;-72
2023/05/16 10:55:36;;;;;;;3.22;0.68;;;;;;;13.25;50.50;101485.09;6226346;28;20128;-69
2023/05/16 10:58:44;;;;;;;3.92;0.50;;;;;;;13.39;51.57;101493.16;6226302;28;20049;-72
2023/05/16 11:01:52;;;;;;;2.53;0.45;;;;;;;13.27;53.54;101480.63;6226342;28;20053;-72
2023/05/16 11:04:58;;;;;;;3.50;0.73;;;;;;;13.45;55.20;101469.06;6226569;28;20053;-72
2023/05/16 11:08:04;;;;;;;7.53;0.90;;;;;;;13.47;49.99;101477.75;6226055;28;20080;-72
2023/05/16 11:11:41;;;;;;;1.23;0.70;;;;;;;13.68;50.13;101478.41;6226023;28;20050;-73
2023/05/16 11:14:46;;;;;;;2.38;1.05;;;;;;;13.69;50.00;101480.94;6225721;28;20049;-72
2023/05/16 11:17:47;;;;;;;1.10;0.50;;;;;;;13.45;48.98;101490.19;6225787;28;20526;-73
2023/05/16 11:20:51;;;;;;;3.00;0.85;;;;;;;13.45;49.99;101488.41;6221794;28;20367;-72
2023/05/16 11:24:23;;;;;;;0.75;0.47;;;;;;;13.41;49.74;101486.00;6226143;28;20509;-73
2023/05/16 11:27:27;;;;;;;5.38;0.90;;;;;;;13.73;51.88;101486.06;6220842;28;20328;-73
2023/05/16 11:30:28;;;;;;;3.38;0.82;;;;;;;13.93;48.99;101485.81;6220959;28;20466;-73
2023/05/16 11:33:34;;;;;;;6.10;1.10;;;;;;;13.80;54.95;101508.56;6218261;28;20060;-72
2023/05/16 11:36:37;;;;;;;6.20;1.23;;;;;;;13.33;56.19;101518.09;6220421;28;20053;-73
2023/05/16 11:39:38;;;;;;;2.65;0.73;;;;;;;12.90;58.59;101520.28;6223702;28;20054;-73
2023/05/16 11:42:42;;;;;;;2.00;0.60;;;;;;;12.71;56.97;101511.56;6212665;28;20045;-72
2023/05/16 11:45:44;;;;;;;6.35;0.60;;;;;;;12.56;61.51;101517.63;6222513;28;20076;-72
2023/05/16 11:48:46;;;;;;;3.20;0.65;;;;;;;12.86;62.30;101515.25;6222750;28;20095;-72
2023/05/16 11:51:51;;;;;;;2.22;0.50;;;;;;;13.37;58.31;101524.06;6223285;28;20172;-71
2023/05/16 11:54:52;;;;;;;1.77;0.63;;;;;;;13.76;56.64;101507.00;6219001;28;20069;-71
2023/05/16 11:57:54;;;;;;;2.60;0.80;;;;;;;14.05;55.17;101518.63;6221177;28;20046;-71
2023/05/16 12:00:56;;;;;;;4.93;1.48;;;;;;;13.87;56.63;101516.06;6218480;28;20057;-71
2023/05/16 12:03:58;;;;;;;6.13;1.05;;;;;;;13.69;57.55;101522.34;6221536;28;20084;-71
2023/05/16 12:07:02;;;;;;;5.55;0.90;;;;;;;13.96;56.31;101520.00;6219739;28;20046;-72
2023/05/16 12:10:06;;;;;;;4.03;0.80;;;;;;;14.37;54.27;101522.13;6224038;28;20050;-71
2023/05/16 12:13:08;;;;;;;4.85;0.82;;;;;;;14.22;52.31;101531.78;6223225;28;20046;-72
2023/05/16 12:16:11;;;;;;;4.15;0.80;;;;;;;14.37;52.09;101525.59;6221897;28;20057;-72
2023/05/16 12:19:12;;;;;;;2.45;0.73;;;;;;;14.52;50.08;101529.19;6219810;28;20057;-72
2023/05/16 12:22:17;;;;;;;1.67;0.43;;;;;;;14.08;51.78;101531.66;6215908;28;20084;-72
2023/05/16 12:25:27;;;;;;;4.93;0.45;;;;;;;13.83;55.36;101559.44;6222282;28;20179;-71
2023/05/16 12:28:32;;;;;;;5.03;0.70;;;;;;;14.01;57.39;101556.75;6221461;28;20053;-72
2023/05/16 12:31:37;;;;;;;2.88;0.70;;;;;;;14.22;54.38;101545.00;6225733;28;20084;-71
2023/05/16 12:34:38;;;;;;;4.03;1.48;;;;;;;14.76;57.39;101555.19;6225179;28;20045;-71
2023/05/16 12:37:43;;;;;;;2.90;0.88;;;;;;;14.81;55.29;101546.06;6222467;28;20447;-71
2023/05/16 12:40:45;;;;;;;1.85;0.70;;;;;;;14.93;54.21;101540.03;6229056;28;20072;-71
2023/05/16 12:43:46;;;;;;;3.38;0.80;;;;;;;15.13;55.60;101544.16;6229372;28;20045;-71
2023/05/16 12:46:50;;;;;;;1.98;0.82;;;;;;;15.24;56.15;101543.50;6224896;28;20050;-72
2023/05/16 12:49:53;;;;;;;2.55;1.58;;;;;;;15.32;53.69;101549.19;6227826;28;20054;-72
2023/05/16 12:53:01;;;;;;;2.90;0.70;;;;;;;15.32;55.58;101559.78;6229085;28;20046;-71
2023/05/16 12:56:02;;;;;;;7.18;1.25;;;;;;;15.31;50.93;101558.09;6228731;28;20049;-72
2023/05/16 12:59:03;;;;;;;3.17;0.90;;;;;;;15.55;51.31;101563.69;6228450;28;20362;-71
2023/05/16 13:02:05;;;;;;;5.38;0.68;;;;;;;15.24;47.30;101562.03;6229025;28;20057;-71
2023/05/16 13:05:07;;;;;;;5.05;0.60;;;;;;;14.66;50.41;101578.66;6222483;28;20100;-71
2023/05/16 13:08:10;;;;;;;3.08;1.08;;;;;;;14.25;52.30;101576.53;6216272;28;20468;-71
2023/05/16 13:11:11;;;;;;;1.70;0.57;;;;;;;13.92;51.46;101584.53;6223453;28;20046;-71
2023/05/16 13:14:13;;;;;;;0.93;0.50;;;;;;;13.54;52.54;101586.56;6219364;28;20047;-70
2023/05/16 13:17:14;;;;;;;3.47;0.80;;;;;;;13.26;53.09;101595.88;6220505;28;20123;-70
2023/05/16 13:20:16;;;;;;;1.20;0.50;;;;;;;13.07;54.76;101597.72;6221143;28;20050;-71
2023/05/16 13:23:18;;;;;;;0.22;0.22;;;;;;;12.86;56.35;101589.94;6225995;28;20047;-71
2023/05/16 13:26:20;;;;;;;0.40;0.40;;;;;;;13.04;58.72;101589.97;6222284;28;20046;-71
2023/05/16 13:29:21;;;;;;;2.47;0.60;;;;;;;13.62;55.53;101593.13;6223694;28;20053;-70
2023/05/16 13:32:23;;;;;;;0.45;0.20;;;;;;;14.28;52.37;101580.81;6213213;28;20050;-71
2023/05/16 13:35:25;;;;;;;2.38;0.57;;;;;;;14.35;50.96;101590.09;6225748;28;20050;-71
2023/05/16 13:38:28;;;;;;;0.90;0.30;;;;;;;14.50;54.79;101586.63;6223306;28;20053;-70
2023/05/16 13:41:29;;;;;;;2.33;0.60;;;;;;;14.56;55.47;101596.00;6223165;28;20049;-70
2023/05/16 13:44:30;;;;;;;9.50;0.55;;;;;;;14.14;57.78;101602.72;6222707;28;20054;-72
2023/05/16 13:47:32;;;;;;;4.00;0.73;;;;;;;14.24;57.36;101590.69;6218567;28;20482;-70
2023/05/16 13:50:33;;;;;;;4.95;0.40;;;;;;;14.54;57.26;101606.69;6220241;28;20181;-70
2023/05/16 13:53:38;;;;;;;4.40;0.60;;;;;;;14.71;57.39;101597.78;6224711;28;20053;-71
2023/05/16 13:56:39;;;;;;;2.35;1.42;;;;;;;14.65;54.78;101588.41;6215672;28;20079;-70
2023/05/16 13:59:40;;;;;;;3.58;0.50;;;;;;;14.77;54.34;101584.22;6212118;28;20449;-71
2023/05/16 14:02:42;;;;;;;2.03;0.65;;;;;;;14.66;54.84;101584.81;6220771;28;20053;-70
2023/05/16 14:05:44;;;;;;;4.13;0.52;;;;;;;14.91;56.24;101583.41;6222842;28;20109;-70
2023/05/16 14:08:47;;;;;;;2.55;0.70;;;;;;;15.05;53.44;101591.41;6223218;28;20054;-71